Nearby METAR Reports

 

KMLI - Moline/Quad City, Illinois, USA
Distance from station: ENE 4mi, 7km
Updated: 05/24/2019 1:52pm
Clear
Clear
 Wind from SE
Wind: SE 12 mph , 19 km/h, Gust: 16 mph , 26 km/h
Temperature: 73°F , 23°C
Dew Point: 64°F , 18°C
Humidity: 74%
Barometer: 29.96 inHg , 1014.6 hPa
Clouds: Clear
Visibility: 10 miles , 16 km
2019/05/24 18:52 KMLI 241852Z 14010G14KT 10SM CLR 23/18 A2996 RMK AO2 SLP142 T02280183
KDVN - Davenport/Quad C, Iowa, USA
Distance from station: N 14mi, 22km
Updated: 05/24/2019 1:52pm
Clear
Clear
 Wind from SSE
Wind: SSE 15 mph , 24 km/h
Temperature: 72°F , 22°C
Dew Point: 63°F , 17°C
Humidity: 73%
Barometer: 29.98 inHg , 1015.2 hPa
Clouds: Clear
Visibility: 10 miles , 16 km
2019/05/24 18:52 KDVN 241852Z AUTO 15013KT 10SM CLR 22/17 A2998 RMK AO2 SLP146 T02170172
 
KMUT - Muscatine, Iowa, USA
Distance from station: W 29mi, 47km
Updated: 05/24/2019 2:15pm
Clear
Clear
 Wind from SSE
Wind: SSE 9 mph , 15 km/h, Gust: 16 mph , 26 km/h
Temperature: 77°F , 25°C
Dew Point: 70°F , 21°C
Humidity: 79%
Barometer: 29.93 inHg , 1013.5 hPa
Clouds: Clear
Visibility: 10 miles , 16 km
2019/05/24 19:15 KMUT 241915Z AUTO 15008G14KT 10SM CLR 25/21 A2993 RMK AO2
KCWI - Clinton Muni, Iowa, USA
Distance from station: NNE 31mi, 50km
Updated: 05/24/2019 2:12pm
Few Clouds
Few Clouds
 Wind from SSE
Wind: SSE 13 mph , 20 km/h
Temperature: 70°F , 21°C
Dew Point: 64°F , 18°C
Humidity: 83%
Barometer: 29.97 inHg , 1014.9 hPa
Clouds: Few Clouds
Visibility: 10 miles , 16 km
Cloud details: Few Clouds 200 ft
2019/05/24 19:12 KCWI 241912Z AUTO 15011KT 10SM FEW002 21/18 A2997 RMK AO2
 
KGBG - Galesburg, Illinois, USA
Distance from station: SSE 35mi, 56km
Updated: 05/24/2019 2:15pm
Clear
Clear
 Wind from ESE
Wind: ESE 10 mph , 17 km/h
Temperature: 75°F , 24°C
Dew Point: 70°F , 21°C
Humidity: 83%
Barometer: 29.97 inHg , 1014.9 hPa
Clouds: Clear
Visibility: 10 miles , 16 km
2019/05/24 19:15 KGBG 241915Z AUTO 11009KT 10SM CLR 24/21 A2997 RMK AO2 LTG DSNT SE T02410211
KSFY - Savanna/Tritown, Illinois, USA
Distance from station: NNE 50mi, 80km
Updated: 05/24/2019 2:15pm
Clear
Clear
 Wind from ESE
Wind: ESE 12 mph , 19 km/h
Temperature: 145°F , 63°C
Barometer: 29.96 inHg , 1014.6 hPa
Clouds: Clear
Visibility: 10 miles , 16 km
2019/05/24 19:15 KSFY 241915Z AUTO 12010KT 10SM CLR 63/ A2996 RMK AO2